Time;durP1;ratioP1;P1;durP2;ratioP2;P2;SDS_P1;SDS_P2;PMS_P1;PMS_P2;Temp;Humidity;BMP_temperature;BMP_pressure;BME280_temperature;BME280_humidity;BME280_pressure;Samples;Min_cycle;Max_cycle;Signal;HPM_P1;HPM_P2
2024/04/05 00:00:17;;;;;;;1.13;0.73;;;11.70;99.90;11.60;100201.00;;;;4873322;28;110511;-64
2024/04/05 00:02:46;;;;;;;2.20;0.40;;;11.60;99.90;11.50;100210.00;;;;4874245;28;94160;-64
2024/04/05 00:05:12;;;;;;;0.20;0.20;;;11.60;99.90;11.50;100215.00;;;;4874144;28;94120;-65
2024/04/05 00:07:39;;;;;;;1.03;0.57;;;11.60;99.90;11.40;100219.00;;;;4873455;28;93272;-64
2024/04/05 00:10:07;;;;;;;0.50;0.40;;;11.40;99.90;11.30;100217.00;;;;4858586;28;96021;-65
2024/04/05 00:12:33;;;;;;;0.57;0.40;;;11.40;99.90;11.30;100219.00;;;;4874636;28;92961;-64
2024/04/05 00:14:59;;;;;;;0.20;0.20;;;11.40;99.90;11.30;100219.00;;;;4879157;28;94267;-65
2024/04/05 00:17:25;;;;;;;2.60;0.60;;;11.30;99.90;11.20;100223.00;;;;4873312;28;92909;-65
2024/04/05 00:19:52;;;;;;;2.43;0.67;;;11.30;99.90;11.20;100222.00;;;;4875508;28;92252;-64
2024/04/05 00:22:19;;;;;;;0.93;0.50;;;11.20;99.90;11.10;100226.00;;;;4874492;28;93093;-65
2024/04/05 00:24:45;;;;;;;0.67;0.60;;;11.20;99.90;11.10;100227.00;;;;4871800;28;114698;-65
2024/04/05 00:27:11;;;;;;;0.40;0.40;;;11.20;99.90;11.10;100240.00;;;;4873350;28;121515;-64
2024/04/05 00:29:36;;;;;;;0.20;0.20;;;11.20;99.90;11.20;100236.00;;;;4876037;28;92835;-65
2024/04/05 00:32:03;;;;;;;0.73;0.67;;;11.20;99.90;11.20;100239.00;;;;4873850;28;109618;-64
2024/04/05 00:34:28;;;;;;;0.43;0.40;;;11.20;99.90;11.20;100234.00;;;;4875949;28;94385;-64
2024/04/05 00:36:54;;;;;;;0.80;0.40;;;11.20;99.90;11.20;100239.00;;;;4873334;28;121822;-66
2024/04/05 00:39:20;;;;;;;0.40;0.23;;;11.30;99.90;11.20;100237.00;;;;4871209;28;109982;-65
2024/04/05 00:41:45;;;;;;;2.93;0.83;;;11.20;99.90;11.20;100235.00;;;;4875380;28;108359;-65
2024/04/05 00:44:11;;;;;;;0.67;0.50;;;11.20;99.90;11.20;100232.00;;;;4871102;28;121694;-65
2024/04/05 00:46:38;;;;;;;0.87;0.30;;;11.30;99.90;11.30;100244.00;;;;4872566;28;111593;-64
2024/04/05 00:49:03;;;;;;;2.73;0.83;;;11.30;99.90;11.20;100237.00;;;;4871333;28;110229;-64
2024/04/05 00:51:29;;;;;;;0.40;0.20;;;11.40;99.90;11.30;100237.00;;;;4874485;28;108333;-65
2024/04/05 00:53:57;;;;;;;0.40;0.40;;;11.30;99.90;11.30;100238.00;;;;4873787;28;123841;-64
2024/04/05 00:56:23;;;;;;;2.73;0.87;;;11.30;99.90;11.30;100251.00;;;;4872439;28;115170;-64
2024/04/05 00:58:50;;;;;;;0.13;0.13;;;11.30;99.90;11.30;100241.00;;;;4872656;28;93003;-63
2024/04/05 01:01:16;;;;;;;0.57;0.40;;;11.30;99.90;11.30;100237.00;;;;4873462;28;98202;-65
2024/04/05 01:03:42;;;;;;;2.90;0.80;;;11.30;99.90;11.30;100244.00;;;;4871234;28;93107;-65
2024/04/05 01:06:08;;;;;;;0.33;0.33;;;10.90;99.90;11.30;100248.00;;;;4871878;28;97869;-64
2024/04/05 01:08:34;;;;;;;0.50;0.50;;;11.30;99.90;11.30;100244.00;;;;4872173;28;110500;-65
2024/04/05 01:11:00;;;;;;;2.93;0.40;;;11.30;99.90;11.30;100238.00;;;;4871552;28;107392;-64
2024/04/05 01:13:26;;;;;;;0.40;0.40;;;11.40;99.90;11.30;100247.00;;;;4873092;28;93786;-65
2024/04/05 01:15:52;;;;;;;0.30;0.30;;;11.30;99.90;11.30;100246.00;;;;4871653;28;121360;-65
2024/04/05 01:18:17;;;;;;;2.30;0.47;;;11.30;99.90;11.20;100253.00;;;;4872151;28;92984;-65
2024/04/05 01:20:45;;;;;;;0.60;0.60;;;11.30;99.90;11.20;100247.00;;;;4871948;28;107371;-65
2024/04/05 01:23:14;;;;;;;1.67;0.70;;;11.30;99.90;11.20;100241.00;;;;4871245;28;107127;-65
2024/04/05 01:25:39;;;;;;;0.70;0.53;;;11.30;99.90;11.20;100241.00;;;;4874930;28;115427;-65
2024/04/05 01:28:15;;;;;;;1.73;0.73;;;11.30;99.90;11.20;100261.00;;;;4874884;28;110427;-64
2024/04/05 01:30:40;;;;;;;1.53;0.70;;;11.20;99.90;11.20;100266.00;;;;4874550;28;94019;-65
2024/04/05 01:33:06;;;;;;;0.30;0.30;;;11.30;99.90;11.30;100259.00;;;;4869691;28;99821;-64
2024/04/05 01:35:32;;;;;;;1.43;0.80;;;11.30;99.90;11.30;100259.00;;;;4873178;28;93117;-64
2024/04/05 01:37:58;;;;;;;0.40;0.40;;;11.30;99.90;11.30;100260.00;;;;4871246;28;108994;-64
2024/04/05 01:40:25;;;;;;;0.77;0.50;;;11.30;99.90;11.40;100255.00;;;;4871698;28;108307;-64
2024/04/05 01:42:52;;;;;;;1.30;0.50;;;11.40;99.90;11.40;100256.00;;;;4872146;28;99252;-64
2024/04/05 01:45:18;;;;;;;1.90;0.50;;;11.40;99.90;11.40;100250.00;;;;4873503;28;94137;-65
2024/04/05 01:47:44;;;;;;;0.50;0.33;;;11.40;99.90;11.40;100254.00;;;;4873684;28;103806;-65
2024/04/05 01:50:13;;;;;;;0.93;0.80;;;11.40;99.90;11.50;100253.00;;;;4873700;28;93268;-65
2024/04/05 01:52:39;;;;;;;2.37;0.77;;;11.40;99.90;11.50;100249.00;;;;4874063;28;93592;-64
2024/04/05 01:55:04;;;;;;;2.87;0.47;;;11.50;99.90;11.50;100239.00;;;;4872718;28;122352;-64
2024/04/05 01:57:34;;;;;;;1.87;0.50;;;11.50;99.90;11.50;100252.00;;;;4872643;28;101964;-65
2024/04/05 02:00:00;;;;;;;4.93;0.57;;;11.60;99.90;11.60;100260.00;;;;4873718;28;94449;-64
2024/04/05 02:02:27;;;;;;;2.70;0.93;;;11.60;99.90;11.60;100249.00;;;;4870744;28;122828;-66
2024/04/05 02:04:53;;;;;;;0.97;0.77;;;11.60;99.90;11.60;100254.00;;;;4870858;28;122607;-65
2024/04/05 02:07:28;;;;;;;0.67;0.47;;;11.60;99.90;11.60;100261.00;;;;4871889;28;110107;-64
2024/04/05 02:09:54;;;;;;;2.37;0.70;;;11.70;99.90;11.60;100258.00;;;;4873695;28;92933;-65
2024/04/05 02:12:21;;;;;;;0.70;0.60;;;11.70;99.90;11.70;100259.00;;;;4872500;28;93304;-64
2024/04/05 02:14:47;;;;;;;1.67;0.90;;;11.60;99.90;11.70;100256.00;;;;4872862;28;93745;-64
2024/04/05 02:17:13;;;;;;;1.03;0.50;;;11.70;99.90;11.70;100250.00;;;;4872511;28;110453;-64
2024/04/05 02:19:39;;;;;;;0.53;0.50;;;11.70;99.90;11.70;100255.00;;;;4871069;28;109343;-65
2024/04/05 02:22:05;;;;;;;0.27;0.27;;;11.70;99.90;11.70;100255.00;;;;4872089;28;92303;-65
2024/04/05 02:24:32;;;;;;;0.77;0.67;;;11.70;99.90;11.70;100257.00;;;;4875345;28;120810;-65
2024/04/05 02:26:58;;;;;;;0.17;0.17;;;11.70;99.90;11.70;100263.00;;;;4874024;28;92828;-64
2024/04/05 02:29:23;;;;;;;0.30;0.30;;;11.80;99.90;11.70;100253.00;;;;4871828;28;100652;-65
2024/04/05 02:31:49;;;;;;;1.00;0.67;;;11.80;99.90;11.70;100263.00;;;;4872374;28;122578;-64
2024/04/05 02:34:15;;;;;;;0.47;0.43;;;11.80;99.90;11.70;100259.00;;;;4870338;28;121806;-64
2024/04/05 02:36:40;;;;;;;1.83;0.63;;;11.70;99.90;11.70;100269.00;;;;4871257;28;110065;-64
2024/04/05 02:39:07;;;;;;;1.47;0.67;;;11.70;99.90;11.70;100261.00;;;;4871581;28;92907;-65
2024/04/05 02:41:33;;;;;;;0.83;0.60;;;11.80;99.90;11.70;100273.00;;;;4872063;28;94392;-64
2024/04/05 02:44:00;;;;;;;1.00;0.53;;;11.70;99.90;11.70;100276.00;;;;4873717;28;94989;-65
2024/04/05 02:46:26;;;;;;;2.67;0.87;;;11.70;99.90;11.70;100272.00;;;;4872152;28;99909;-64
2024/04/05 02:48:54;;;;;;;0.87;0.70;;;11.70;99.90;11.60;100268.00;;;;4871120;28;99584;-65
2024/04/05 02:51:20;;;;;;;0.30;0.30;;;11.70;99.90;11.60;100278.00;;;;4872912;28;96318;-65
2024/04/05 02:53:46;;;;;;;0.70;0.60;;;11.70;99.90;11.50;100275.00;;;;4871332;28;94024;-64
2024/04/05 02:56:14;;;;;;;0.60;0.60;;;11.60;99.90;11.40;100276.00;;;;4873069;28;92913;-64
2024/04/05 02:58:40;;;;;;;0.60;0.50;;;11.50;99.90;11.40;100280.00;;;;4871780;28;94189;-64
2024/04/05 03:01:06;;;;;;;2.10;0.60;;;11.50;99.90;11.30;100278.00;;;;4869656;28;123067;-65
2024/04/05 03:03:31;;;;;;;0.60;0.40;;;11.40;99.90;11.30;100279.00;;;;4872372;28;122667;-64
2024/04/05 03:05:57;;;;;;;0.97;0.40;;;11.30;99.90;11.20;100291.00;;;;4873446;28;92866;-64
2024/04/05 03:08:23;;;;;;;0.83;0.60;;;11.30;99.90;11.10;100291.00;;;;4871385;28;103940;-65
2024/04/05 03:10:48;;;;;;;3.03;0.53;;;11.20;99.90;11.10;100297.00;;;;4872459;28;120943;-63
2024/04/05 03:13:14;;;;;;;2.00;0.80;;;11.20;99.90;11.00;100291.00;;;;4874430;28;92742;-64
2024/04/05 03:15:40;;;;;;;0.50;0.40;;;11.10;99.90;11.00;100300.00;;;;4873395;28;110430;-64
2024/04/05 03:18:06;;;;;;;2.37;0.70;;;11.30;99.90;10.90;100302.00;;;;4871482;28;109193;-64
2024/04/05 03:20:32;;;;;;;2.73;0.80;;;11.00;99.90;10.80;100304.00;;;;4873671;28;92998;-65
2024/04/05 03:22:57;;;;;;;0.53;0.50;;;10.90;99.90;10.80;100300.00;;;;4871412;28;122406;-64
2024/04/05 03:25:23;;;;;;;0.37;0.37;;;10.80;99.90;10.70;100305.00;;;;4871350;28;108894;-64
2024/04/05 03:27:49;;;;;;;1.17;0.60;;;10.80;99.90;10.70;100294.00;;;;4871620;28;96706;-64
2024/04/05 03:30:15;;;;;;;0.40;0.40;;;10.80;99.90;10.60;100304.00;;;;4870023;28;93997;-63
2024/04/05 03:32:41;;;;;;;0.77;0.50;;;10.70;99.90;10.60;100302.00;;;;4870352;28;93824;-64
2024/04/05 03:35:07;;;;;;;2.20;0.53;;;10.70;99.90;10.60;100304.00;;;;4872814;28;109695;-64
2024/04/05 03:37:33;;;;;;;4.53;0.60;;;10.60;99.90;10.50;100308.00;;;;4872108;28;94759;-64
2024/04/05 03:40:00;;;;;;;2.37;0.50;;;10.60;99.90;10.50;100303.00;;;;4870836;28;93481;-64
2024/04/05 03:42:25;;;;;;;0.40;0.40;;;10.60;99.90;10.40;100307.00;;;;4871901;28;93899;-66
2024/04/05 03:44:51;;;;;;;1.70;0.77;;;10.50;99.90;10.40;100307.00;;;;4874413;28;111131;-64
2024/04/05 03:47:16;;;;;;;1.20;0.50;;;10.50;99.90;10.40;100312.00;;;;4873793;28;108515;-63
2024/04/05 03:49:42;;;;;;;1.23;0.57;;;10.40;99.90;10.30;100309.00;;;;4874267;28;121103;-63
2024/04/05 03:52:08;;;;;;;1.57;0.43;;;10.40;99.90;10.30;100314.00;;;;4872503;28;121746;-63
2024/04/05 03:54:34;;;;;;;1.10;0.63;;;10.40;99.90;10.20;100308.00;;;;4871444;28;109900;-64
2024/04/05 03:57:00;;;;;;;3.07;0.93;;;10.30;99.90;10.20;100311.00;;;;4872888;28;108871;-64
2024/04/05 03:59:29;;;;;;;1.63;0.50;;;10.30;99.90;10.20;100320.00;;;;4872605;28;122846;-64
2024/04/05 04:01:54;;;;;;;0.73;0.63;;;10.30;99.90;10.10;100312.00;;;;4875080;28;93077;-65
2024/04/05 04:04:21;;;;;;;0.70;0.50;;;10.20;99.90;10.10;100318.00;;;;4876948;28;93388;-64
2024/04/05 04:06:47;;;;;;;1.53;0.73;;;10.20;99.90;10.10;100320.00;;;;4873145;28;94101;-64
2024/04/05 04:09:15;;;;;;;1.13;0.87;;;10.10;99.90;10.10;100325.00;;;;4874066;28;105096;-64
2024/04/05 04:11:42;;;;;;;1.50;0.67;;;10.10;99.90;10.10;100330.00;;;;4875387;28;94345;-64
2024/04/05 04:14:07;;;;;;;0.60;0.60;;;10.20;99.90;10.00;100330.00;;;;4861935;28;93134;-64
2024/04/05 04:16:33;;;;;;;1.77;0.50;;;10.10;99.90;10.00;100337.00;;;;4873985;28;108924;-64
2024/04/05 04:19:00;;;;;;;0.90;0.73;;;10.10;99.90;10.00;100345.00;;;;4874696;28;93270;-63
2024/04/05 04:21:26;;;;;;;1.67;0.73;;;10.10;99.90;10.00;100335.00;;;;4874603;28;94165;-65
2024/04/05 04:23:52;;;;;;;1.57;0.57;;;10.00;99.90;9.90;100340.00;;;;4874998;28;92203;-65
2024/04/05 04:26:22;;;;;;;1.23;0.67;;;10.00;99.90;9.90;100352.00;;;;4873519;28;93036;-65
2024/04/05 04:28:49;;;;;;;2.17;0.73;;;9.90;99.90;9.90;100353.00;;;;4871948;28;93133;-64
2024/04/05 04:31:17;;;;;;;2.20;0.87;;;9.90;99.90;9.90;100353.00;;;;4872291;28;93960;-64
2024/04/05 04:33:45;;;;;;;1.10;0.93;;;9.90;99.90;9.80;100360.00;;;;4877030;28;93127;-64
2024/04/05 04:36:11;;;;;;;0.90;0.67;;;9.90;99.90;9.80;100362.00;;;;4874608;28;93128;-64
2024/04/05 04:38:37;;;;;;;4.20;1.13;;;9.90;99.90;9.80;100354.00;;;;4873210;28;93721;-65
2024/04/05 04:41:04;;;;;;;0.70;0.50;;;9.90;99.90;9.80;100370.00;;;;4873709;28;111970;-65
2024/04/05 04:43:29;;;;;;;3.60;1.03;;;9.90;99.90;9.80;100364.00;;;;4873529;28;93054;-63
2024/04/05 04:45:55;;;;;;;1.97;0.80;;;9.80;99.90;9.80;100378.00;;;;4873938;28;94037;-65
2024/04/05 04:48:21;;;;;;;1.37;0.97;;;9.80;99.90;9.80;100368.00;;;;4868487;28;120919;-65
2024/04/05 04:50:46;;;;;;;3.83;0.93;;;9.90;99.90;9.80;100363.00;;;;4874327;28;120961;-64
2024/04/05 04:53:12;;;;;;;2.57;1.40;;;9.90;99.90;9.80;100368.00;;;;4876253;28;110621;-64
2024/04/05 04:55:41;;;;;;;2.90;1.20;;;9.90;99.90;9.90;100376.00;;;;4876125;28;109448;-64
2024/04/05 04:58:07;;;;;;;2.17;1.27;;;9.90;99.90;9.90;100368.00;;;;4877347;28;93123;-64
2024/04/05 05:00:32;;;;;;;6.93;2.90;;;10.00;99.90;10.00;100379.00;;;;4874366;28;124210;-64
2024/04/05 05:02:58;;;;;;;9.77;4.80;;;10.00;99.90;10.00;100369.00;;;;4871669;28;111473;-65
2024/04/05 05:05:23;;;;;;;8.23;2.80;;;10.00;99.90;10.10;100373.00;;;;4874132;28;107512;-64
2024/04/05 05:07:49;;;;;;;9.93;3.73;;;10.10;99.90;10.10;100374.00;;;;4872642;28;119824;-64
2024/04/05 05:10:15;;;;;;;2.40;1.43;;;10.10;99.90;10.20;100378.00;;;;4872909;28;122984;-64
2024/04/05 05:12:40;;;;;;;7.27;5.13;;;10.20;99.90;10.20;100374.00;;;;4869456;28;108351;-64
2024/04/05 05:15:06;;;;;;;4.00;2.33;;;10.30;99.90;10.30;100378.00;;;;4866607;28;94121;-63
2024/04/05 05:17:33;;;;;;;5.60;2.53;;;10.40;99.90;10.40;100360.00;;;;4868713;28;124429;-63
2024/04/05 05:19:59;;;;;;;8.03;5.07;;;10.40;99.90;10.50;100368.00;;;;4868295;28;94313;-65
2024/04/05 05:22:25;;;;;;;13.57;6.40;;;10.50;99.90;10.60;100368.00;;;;4870282;28;92921;-65
2024/04/05 05:24:51;;;;;;;7.10;4.67;;;10.60;99.90;10.70;100375.00;;;;4870040;28;108627;-65
2024/04/05 05:27:16;;;;;;;4.07;2.10;;;10.70;99.90;10.70;100371.00;;;;4868634;28;122685;-64
2024/04/05 05:29:43;;;;;;;5.90;4.60;;;10.90;99.90;10.80;100375.00;;;;4870827;28;93908;-64
2024/04/05 05:32:11;;;;;;;4.70;2.30;;;10.80;99.90;10.90;100379.00;;;;4870043;28;92880;-64
2024/04/05 05:34:38;;;;;;;4.53;1.30;;;10.90;99.90;11.00;100381.00;;;;4857202;28;94242;-65
2024/04/05 05:37:04;;;;;;;5.83;2.30;;;10.90;99.90;11.10;100379.00;;;;4880393;28;93922;-65
2024/04/05 05:39:29;;;;;;;2.40;1.53;;;11.10;99.90;11.10;100378.00;;;;4869919;28;120561;-65
2024/04/05 05:41:55;;;;;;;8.73;2.60;;;11.10;99.90;11.10;100390.00;;;;4869172;28;108801;-64
2024/04/05 05:44:20;;;;;;;6.13;2.60;;;11.20;99.90;11.10;100396.00;;;;4869934;28;106910;-64
2024/04/05 05:46:46;;;;;;;5.00;2.90;;;11.20;99.90;11.10;100386.00;;;;4871989;28;123380;-64
2024/04/05 05:49:13;;;;;;;11.20;5.33;;;11.20;99.90;11.10;100395.00;;;;4868166;28;122878;-64
2024/04/05 05:51:38;;;;;;;2.07;1.50;;;11.20;99.90;11.20;100391.00;;;;4868773;28;94044;-64
2024/04/05 05:54:04;;;;;;;8.03;3.80;;;11.20;99.90;11.20;100382.00;;;;4867255;28;110021;-64
2024/04/05 05:56:29;;;;;;;3.03;2.70;;;11.20;99.90;11.30;100391.00;;;;4867972;28;116412;-64
2024/04/05 05:58:55;;;;;;;2.53;1.90;;;11.60;99.90;11.50;100383.00;;;;4868898;28;124221;-63
2024/04/05 06:01:21;;;;;;;6.27;3.47;;;11.50;99.90;11.70;100385.00;;;;4869400;28;103274;-64
2024/04/05 06:03:47;;;;;;;2.83;2.40;;;11.60;99.90;11.90;100373.00;;;;4867382;28;107785;-64
2024/04/05 06:06:12;;;;;;;2.37;1.20;;;11.80;99.90;12.10;100378.00;;;;4869384;28;93778;-63
2024/04/05 06:08:40;;;;;;;3.03;2.53;;;12.00;99.90;12.30;100373.00;;;;4867016;28;122194;-63
2024/04/05 06:11:05;;;;;;;1.50;1.07;;;12.20;99.90;12.60;100388.00;;;;4866598;28;93118;-63
2024/04/05 06:13:31;;;;;;;3.27;1.40;;;12.40;99.90;12.70;100381.00;;;;4869055;28;101359;-64
2024/04/05 06:15:58;;;;;;;1.93;1.30;;;12.60;99.90;12.90;100396.00;;;;4867537;28;123253;-64
2024/04/05 06:18:28;;;;;;;3.27;2.20;;;12.80;99.90;13.10;100391.00;;;;4869411;28;93872;-63
2024/04/05 06:20:58;;;;;;;4.00;1.37;;;13.00;99.90;13.30;100394.00;;;;4871766;28;93040;-64
2024/04/05 06:23:25;;;;;;;1.93;1.23;;;13.20;99.90;13.60;100404.00;;;;4868701;28;106365;-64
2024/04/05 06:25:58;;;;;;;0.83;0.80;;;13.50;99.90;13.80;100403.00;;;;4870360;28;92344;-63
2024/04/05 06:28:25;;;;;;;1.43;0.80;;;13.70;99.90;14.00;100407.00;;;;4869409;28;92990;-64
2024/04/05 06:30:51;;;;;;;4.00;1.10;;;13.90;99.90;14.00;100410.00;;;;4870077;28;94244;-65
2024/04/05 06:33:17;;;;;;;3.00;0.87;;;14.00;99.90;14.10;100405.00;;;;4865726;28;100509;-64
2024/04/05 06:35:43;;;;;;;4.18;1.95;;;14.00;99.90;14.10;100413.00;;;;4865788;28;93750;-64
2024/04/05 06:38:09;;;;;;;1.42;1.10;;;14.10;99.90;14.00;100410.00;;;;4868988;28;121292;-63
2024/04/05 06:40:36;;;;;;;1.83;1.02;;;14.10;99.90;14.10;100416.00;;;;4870369;28;110132;-63
2024/04/05 06:43:03;;;;;;;3.53;1.30;;;14.10;99.90;14.20;100415.00;;;;4868789;28;93177;-64
2024/04/05 06:45:29;;;;;;;1.23;1.08;;;14.20;99.90;14.20;100424.00;;;;4869023;28;94513;-64
2024/04/05 06:47:58;;;;;;;2.35;0.90;;;14.20;99.90;14.30;100428.00;;;;4865954;28;122507;-64
2024/04/05 06:50:26;;;;;;;3.70;1.92;;;14.30;99.90;14.50;100424.00;;;;4860743;28;92443;-64
2024/04/05 06:52:58;;;;;;;9.27;1.48;;;14.40;99.90;14.60;100426.00;;;;4868474;28;92901;-64
2024/04/05 06:55:24;;;;;;;2.65;1.15;;;14.60;99.90;14.70;100430.00;;;;4868213;28;120864;-64
2024/04/05 06:57:53;;;;;;;2.25;1.00;;;14.70;99.90;14.70;100430.00;;;;4869077;28;115420;-64
2024/04/05 07:00:19;;;;;;;0.60;0.60;;;14.70;99.90;14.80;100428.00;;;;4867472;28;93001;-64
2024/04/05 07:02:45;;;;;;;2.70;1.23;;;14.80;99.90;14.90;100425.00;;;;4867582;28;96521;-64
2024/04/05 07:05:11;;;;;;;1.75;0.88;;;14.80;99.90;15.10;100425.00;;;;4867252;28;93357;-64
2024/04/05 07:07:37;;;;;;;1.42;0.98;;;15.00;99.90;15.40;100436.00;;;;4866161;28;93542;-64
2024/04/05 07:10:04;;;;;;;3.03;1.20;;;15.20;99.90;15.60;100424.00;;;;4867998;28;93034;-64
2024/04/05 07:12:30;;;;;;;1.20;1.08;;;15.50;99.90;15.80;100429.00;;;;4866092;28;93253;-64
2024/04/05 07:14:55;;;;;;;0.88;0.52;;;15.70;99.90;16.10;100441.00;;;;4867165;28;92116;-64
2024/04/05 07:17:21;;;;;;;2.95;1.23;;;15.90;99.90;16.30;100444.00;;;;4867985;28;93018;-64
2024/04/05 07:19:47;;;;;;;2.60;1.38;;;16.10;99.90;16.50;100441.00;;;;4867252;28;110857;-64
2024/04/05 07:22:15;;;;;;;0.95;0.47;;;16.40;99.90;16.70;100432.00;;;;4869432;28;94002;-65
2024/04/05 07:24:44;;;;;;;1.83;0.82;;;16.60;99.90;17.00;100448.00;;;;4863108;28;94001;-64
2024/04/05 07:27:10;;;;;;;0.30;0.30;;;16.80;99.90;17.10;100442.00;;;;4869005;28;110055;-66
2024/04/05 07:29:36;;;;;;;1.60;0.50;;;17.00;99.90;17.10;100458.00;;;;4869352;28;110436;-63
2024/04/05 07:32:04;;;;;;;3.03;0.95;;;17.10;99.90;17.10;100471.00;;;;4872279;28;93098;-63
2024/04/05 07:34:31;;;;;;;1.35;0.88;;;17.10;99.90;16.90;100454.00;;;;4869943;28;94099;-64
2024/04/05 07:36:56;;;;;;;3.13;0.50;;;16.90;99.90;16.60;100470.00;;;;4871468;28;109684;-63
2024/04/05 07:39:22;;;;;;;0.98;0.80;;;16.70;99.90;16.50;100473.00;;;;4869875;28;92602;-65
2024/04/05 07:41:48;;;;;;;0.75;0.60;;;16.50;99.90;16.30;100463.00;;;;4870951;28;108332;-64
2024/04/05 07:44:13;;;;;;;3.35;0.80;;;16.40;99.90;16.10;100467.00;;;;4870813;28;119547;-62
2024/04/05 07:46:41;;;;;;;1.65;0.95;;;16.20;99.90;16.00;100472.00;;;;4870295;28;123228;-64
2024/04/05 07:49:07;;;;;;;3.55;0.80;;;16.00;99.90;15.90;100469.00;;;;4870806;28;93198;-65
2024/04/05 07:51:33;;;;;;;7.47;1.00;;;15.90;99.90;15.80;100483.00;;;;4870251;28;109066;-65
2024/04/05 07:53:58;;;;;;;1.15;1.00;;;15.80;99.90;15.70;100478.00;;;;4865834;28;93980;-64
2024/04/05 07:56:25;;;;;;;1.70;0.70;;;15.70;99.90;15.70;100479.00;;;;4863190;28;121750;-64
2024/04/05 07:58:51;;;;;;;2.28;1.35;;;15.70;99.90;15.70;100476.00;;;;4871446;28;92725;-63
2024/04/05 08:01:18;;;;;;;2.90;1.08;;;15.60;99.90;15.60;100476.00;;;;4868561;28;108678;-63
2024/04/05 08:03:44;;;;;;;0.55;0.55;;;15.60;99.90;15.60;100470.00;;;;4870069;28;93674;-64
2024/04/05 08:06:10;;;;;;;0.50;0.50;;;15.60;99.90;15.50;100476.00;;;;4868937;28;110065;-64
2024/04/05 08:08:36;;;;;;;2.92;1.25;;;15.50;99.90;15.50;100473.00;;;;4869281;28;110588;-63
2024/04/05 08:11:05;;;;;;;0.98;0.85;;;15.50;99.90;15.50;100477.00;;;;4870597;28;94236;-63
2024/04/05 08:13:31;;;;;;;5.63;1.13;;;15.50;99.90;15.50;100481.00;;;;4868868;28;93991;-63
2024/04/05 08:15:56;;;;;;;2.22;0.90;;;15.50;99.90;15.60;100480.00;;;;4870242;28;122611;-64
2024/04/05 08:18:22;;;;;;;1.35;1.10;;;15.50;99.90;15.60;100488.00;;;;4868960;28;108776;-64
2024/04/05 08:20:48;;;;;;;4.47;1.10;;;15.50;99.90;15.70;100485.00;;;;4867607;28;108888;-64
2024/04/05 08:23:13;;;;;;;4.63;0.95;;;15.50;99.90;15.70;100486.00;;;;4867352;28;101314;-64
2024/04/05 08:25:40;;;;;;;1.30;0.60;;;15.60;99.90;15.80;100484.00;;;;4864962;28;122100;-64
2024/04/05 08:28:06;;;;;;;1.05;0.95;;;15.70;99.90;15.80;100482.00;;;;4869710;28;92353;-64
2024/04/05 08:30:32;;;;;;;0.73;0.65;;;15.70;99.90;15.80;100486.00;;;;4869228;28;92886;-64
2024/04/05 08:32:57;;;;;;;2.08;0.90;;;15.70;99.90;15.80;100481.00;;;;4868962;28;123032;-64
2024/04/05 08:35:23;;;;;;;3.38;0.80;;;15.80;99.90;15.80;100492.00;;;;4865153;28;122394;-65
2024/04/05 08:37:48;;;;;;;0.70;0.50;;;15.70;99.90;15.80;100492.00;;;;4866945;28;109691;-63
2024/04/05 08:40:14;;;;;;;1.20;0.70;;;15.70;99.90;15.80;100490.00;;;;4867750;28;107380;-65
2024/04/05 08:42:44;;;;;;;1.33;1.05;;;15.70;99.90;15.80;100478.00;;;;4867509;28;121016;-64
2024/04/05 08:45:12;;;;;;;2.03;0.63;;;15.80;99.90;15.80;100487.00;;;;4869013;28;112286;-64
2024/04/05 08:47:38;;;;;;;2.67;1.33;;;15.70;99.90;15.90;100492.00;;;;4870420;28;109974;-64
2024/04/05 08:50:08;;;;;;;1.30;0.80;;;15.70;99.90;15.80;100492.00;;;;4867402;28;110175;-64
2024/04/05 08:52:34;;;;;;;2.90;0.95;;;15.80;99.90;15.80;100478.00;;;;4867175;28;93266;-64
2024/04/05 08:55:01;;;;;;;1.08;0.73;;;15.80;99.90;15.80;100480.00;;;;4869744;28;92786;-64
2024/04/05 08:57:31;;;;;;;1.50;0.85;;;15.70;99.90;15.80;100479.00;;;;4861578;28;92961;-64
2024/04/05 08:59:57;;;;;;;5.35;0.98;;;15.80;99.90;15.80;100476.00;;;;4864382;28;94802;-63
2024/04/05 09:02:25;;;;;;;2.53;0.98;;;15.70;99.90;15.90;100465.00;;;;4861697;28;123089;-64
2024/04/05 09:04:51;;;;;;;4.53;1.45;;;15.90;99.90;16.10;100464.00;;;;4870955;28;93472;-64
2024/04/05 09:07:20;;;;;;;0.60;0.60;;;15.90;99.90;16.20;100456.00;;;;4870180;28;93076;-63
2024/04/05 09:09:47;;;;;;;2.03;0.60;;;16.00;99.90;16.30;100468.00;;;;4871418;28;92863;-64
2024/04/05 09:12:22;;;;;;;2.15;0.77;;;16.10;99.90;16.40;100470.00;;;;4868322;28;93551;-63
2024/04/05 09:14:59;;;;;;;1.05;0.80;;;16.20;99.90;16.40;100468.00;;;;4869841;28;94111;-63
2024/04/05 09:17:26;;;;;;;1.73;0.95;;;16.30;99.90;16.50;100459.00;;;;4862082;28;96185;-63
2024/04/05 09:20:06;;;;;;;2.22;0.55;;;16.40;99.90;16.80;100461.00;;;;4869251;28;109329;-63
2024/04/05 09:22:32;;;;;;;1.60;0.85;;;16.60;99.90;17.10;100467.00;;;;4870066;28;93371;-62
2024/04/05 09:25:04;;;;;;;1.20;1.00;;;16.90;99.90;17.50;100470.00;;;;4870715;28;123454;-62
2024/04/05 09:27:30;;;;;;;1.67;0.82;;;17.20;99.90;17.80;100473.00;;;;4837616;28;93147;-63
2024/04/05 09:30:03;;;;;;;1.65;1.02;;;17.50;99.90;18.20;100470.00;;;;4870069;28;93098;-65
2024/04/05 09:32:29;;;;;;;2.55;1.00;;;17.90;99.90;18.40;100464.00;;;;4868016;28;93284;-63
2024/04/05 09:34:59;;;;;;;3.03;1.13;;;18.10;99.90;18.60;100466.00;;;;4869516;28;93524;-63
2024/04/05 09:37:26;;;;;;;1.25;0.80;;;18.50;99.90;18.70;100465.00;;;;4869220;28;92849;-63
2024/04/05 09:39:53;;;;;;;3.45;1.00;;;18.50;99.90;18.90;100448.00;;;;4867795;28;93388;-63
2024/04/05 09:42:22;;;;;;;1.10;0.98;;;18.60;99.90;19.00;100458.00;;;;4868029;28;115522;-63
2024/04/05 09:44:55;;;;;;;1.85;0.65;;;18.70;99.90;19.10;100467.00;;;;4870042;28;92817;-66
2024/04/05 09:47:23;;;;;;;1.67;1.02;;;18.90;99.90;19.10;100473.00;;;;4867272;28;93201;-65
2024/04/05 09:49:49;;;;;;;0.60;0.60;;;18.90;99.90;19.10;100465.00;;;;4869964;28;94013;-63
2024/04/05 09:52:26;;;;;;;1.98;0.73;;;18.90;99.80;19.10;100468.00;;;;4867975;28;93995;-63
2024/04/05 09:55:00;;;;;;;5.60;1.35;;;18.90;99.80;19.00;100473.00;;;;4867355;28;93695;-63
2024/04/05 09:57:28;;;;;;;2.20;1.58;;;18.90;99.60;18.90;100482.00;;;;4867745;28;94397;-63
2024/04/05 09:59:56;;;;;;;3.05;1.20;;;18.80;99.80;18.80;100494.00;;;;4867291;28;93809;-64
2024/04/05 10:02:22;;;;;;;1.90;0.75;;;18.70;99.90;18.70;100485.00;;;;4866944;28;93629;-64
2024/04/05 10:04:48;;;;;;;1.10;0.82;;;18.60;99.90;18.60;100485.00;;;;4867146;28;122377;-65
2024/04/05 10:07:14;;;;;;;2.08;1.17;;;18.60;99.90;18.60;100485.00;;;;4870813;28;110577;-63
2024/04/05 10:09:40;;;;;;;0.50;0.50;;;18.50;99.90;18.60;100483.00;;;;4868758;28;94553;-63
2024/04/05 10:12:13;;;;;;;2.65;0.70;;;18.50;99.90;18.80;100478.00;;;;4868588;28;110333;-65
2024/04/05 10:14:40;;;;;;;12.45;1.55;;;18.60;99.90;19.20;100476.00;;;;4866607;28;93962;-65
2024/04/05 10:17:11;;;;;;;0.80;0.77;;;18.70;99.80;19.60;100475.00;;;;4868394;28;93167;-63
2024/04/05 10:19:39;;;;;;;1.85;0.63;;;19.20;99.70;20.00;100471.00;;;;4867924;28;92904;-64
2024/04/05 10:22:11;;;;;;;1.02;1.00;;;19.60;99.20;20.40;100473.00;;;;4865439;28;114592;-63
2024/04/05 10:24:37;;;;;;;1.20;0.73;;;20.00;98.20;20.80;100469.00;;;;4868256;28;93438;-64
2024/04/05 10:27:11;;;;;;;3.38;0.98;;;20.40;98.00;21.00;100481.00;;;;4868533;28;93102;-65
2024/04/05 10:29:37;;;;;;;1.35;1.25;;;20.70;97.40;21.20;100488.00;;;;4867061;28;93163;-64
2024/04/05 10:32:09;;;;;;;0.75;0.57;;;20.80;96.20;21.30;100492.00;;;;4871074;28;108501;-63
2024/04/05 10:34:36;;;;;;;6.25;1.13;;;21.00;95.70;21.10;100480.00;;;;4866619;28;93482;-64
2024/04/05 10:37:13;;;;;;;1.98;1.33;;;21.00;94.00;20.90;100476.00;;;;4867001;28;92950;-62
2024/04/05 10:39:40;;;;;;;2.63;1.02;;;20.80;94.40;20.60;100468.00;;;;4869689;28;93839;-64
2024/04/05 10:42:06;;;;;;;0.95;0.80;;;20.60;94.10;20.60;100460.00;;;;4869088;28;93891;-64